sensor_id;sensor_type;location;lat;lon;timestamp;P1;durP1;ratioP1;P2;durP2;ratioP2
44116;SDS011;29781;49.480;8.512;2022-10-16T00:00:43;2.35;;;1.80;;
44116;SDS011;29781;49.480;8.512;2022-10-16T00:03:09;2.78;;;2.10;;
44116;SDS011;29781;49.480;8.512;2022-10-16T00:05:41;4.05;;;1.90;;
44116;SDS011;29781;49.480;8.512;2022-10-16T00:08:08;4.30;;;2.00;;
44116;SDS011;29781;49.480;8.512;2022-10-16T00:10:34;5.07;;;2.50;;
44116;SDS011;29781;49.480;8.512;2022-10-16T00:13:00;5.80;;;2.38;;
44116;SDS011;29781;49.480;8.512;2022-10-16T00:15:27;4.20;;;2.33;;
44116;SDS011;29781;49.480;8.512;2022-10-16T00:17:52;2.72;;;2.30;;
44116;SDS011;29781;49.480;8.512;2022-10-16T00:20:18;9.05;;;2.35;;
44116;SDS011;29781;49.480;8.512;2022-10-16T00:22:44;2.67;;;2.08;;
44116;SDS011;29781;49.480;8.512;2022-10-16T00:25:09;4.28;;;2.30;;
44116;SDS011;29781;49.480;8.512;2022-10-16T00:27:35;3.00;;;2.03;;
44116;SDS011;29781;49.480;8.512;2022-10-16T00:30:00;3.35;;;2.20;;
44116;SDS011;29781;49.480;8.512;2022-10-16T00:32:26;8.35;;;2.40;;
44116;SDS011;29781;49.480;8.512;2022-10-16T00:34:52;5.47;;;2.42;;
44116;SDS011;29781;49.480;8.512;2022-10-16T00:37:19;2.40;;;2.03;;
44116;SDS011;29781;49.480;8.512;2022-10-16T00:39:45;4.20;;;2.20;;
44116;SDS011;29781;49.480;8.512;2022-10-16T00:42:15;5.22;;;2.40;;
44116;SDS011;29781;49.480;8.512;2022-10-16T00:47:09;5.53;;;2.38;;
44116;SDS011;29781;49.480;8.512;2022-10-16T00:49:37;2.72;;;2.30;;
44116;SDS011;29781;49.480;8.512;2022-10-16T00:52:03;3.50;;;2.53;;
44116;SDS011;29781;49.480;8.512;2022-10-16T00:54:31;2.63;;;2.42;;
44116;SDS011;29781;49.480;8.512;2022-10-16T00:57:01;5.60;;;2.40;;
44116;SDS011;29781;49.480;8.512;2022-10-16T00:59:30;3.33;;;2.83;;
44116;SDS011;29781;49.480;8.512;2022-10-16T01:02:01;4.13;;;2.80;;
44116;SDS011;29781;49.480;8.512;2022-10-16T01:04:30;4.88;;;2.97;;
44116;SDS011;29781;49.480;8.512;2022-10-16T01:09:41;9.57;;;3.50;;
44116;SDS011;29781;49.480;8.512;2022-10-16T01:12:34;4.03;;;2.50;;
44116;SDS011;29781;49.480;8.512;2022-10-16T01:15:05;5.43;;;2.45;;
44116;SDS011;29781;49.480;8.512;2022-10-16T01:17:53;5.25;;;3.10;;
44116;SDS011;29781;49.480;8.512;2022-10-16T01:20:44;2.88;;;2.30;;
44116;SDS011;29781;49.480;8.512;2022-10-16T01:29:02;3.00;;;1.95;;
44116;SDS011;29781;49.480;8.512;2022-10-16T01:31:35;4.43;;;2.22;;
44116;SDS011;29781;49.480;8.512;2022-10-16T01:34:18;3.30;;;2.22;;
44116;SDS011;29781;49.480;8.512;2022-10-16T01:36:53;4.05;;;2.28;;
44116;SDS011;29781;49.480;8.512;2022-10-16T01:39:24;3.58;;;2.38;;
44116;SDS011;29781;49.480;8.512;2022-10-16T01:41:58;3.33;;;2.05;;
44116;SDS011;29781;49.480;8.512;2022-10-16T01:44:29;2.55;;;2.10;;
44116;SDS011;29781;49.480;8.512;2022-10-16T01:46:57;6.07;;;2.20;;
44116;SDS011;29781;49.480;8.512;2022-10-16T01:49:25;3.70;;;2.10;;
44116;SDS011;29781;49.480;8.512;2022-10-16T01:51:55;2.13;;;1.80;;
44116;SDS011;29781;49.480;8.512;2022-10-16T01:54:23;2.72;;;1.90;;
44116;SDS011;29781;49.480;8.512;2022-10-16T01:56:52;3.65;;;2.20;;
44116;SDS011;29781;49.480;8.512;2022-10-16T01:59:20;3.20;;;2.00;;
44116;SDS011;29781;49.480;8.512;2022-10-16T02:01:50;3.72;;;2.08;;
44116;SDS011;29781;49.480;8.512;2022-10-16T02:04:39;6.50;;;2.10;;
44116;SDS011;29781;49.480;8.512;2022-10-16T02:07:08;5.05;;;2.63;;
44116;SDS011;29781;49.480;8.512;2022-10-16T02:09:35;4.05;;;2.63;;
44116;SDS011;29781;49.480;8.512;2022-10-16T02:12:03;3.33;;;2.50;;
44116;SDS011;29781;49.480;8.512;2022-10-16T02:14:36;3.70;;;1.90;;
44116;SDS011;29781;49.480;8.512;2022-10-16T02:17:14;5.53;;;2.50;;
44116;SDS011;29781;49.480;8.512;2022-10-16T02:19:41;4.03;;;2.53;;
44116;SDS011;29781;49.480;8.512;2022-10-16T02:22:09;5.75;;;2.42;;
44116;SDS011;29781;49.480;8.512;2022-10-16T02:24:43;4.93;;;2.67;;
44116;SDS011;29781;49.480;8.512;2022-10-16T02:27:12;5.00;;;3.58;;
44116;SDS011;29781;49.480;8.512;2022-10-16T02:29:46;6.65;;;4.63;;
44116;SDS011;29781;49.480;8.512;2022-10-16T02:32:16;7.30;;;4.85;;
44116;SDS011;29781;49.480;8.512;2022-10-16T02:34:46;7.60;;;5.57;;
44116;SDS011;29781;49.480;8.512;2022-10-16T02:37:14;7.65;;;5.25;;
44116;SDS011;29781;49.480;8.512;2022-10-16T02:39:41;8.05;;;5.40;;
44116;SDS011;29781;49.480;8.512;2022-10-16T02:42:11;7.25;;;5.15;;
44116;SDS011;29781;49.480;8.512;2022-10-16T02:44:38;7.15;;;4.93;;
44116;SDS011;29781;49.480;8.512;2022-10-16T02:47:03;4.97;;;4.57;;
44116;SDS011;29781;49.480;8.512;2022-10-16T02:49:29;5.28;;;4.57;;
44116;SDS011;29781;49.480;8.512;2022-10-16T02:51:55;8.90;;;4.22;;
44116;SDS011;29781;49.480;8.512;2022-10-16T02:54:20;6.75;;;4.18;;
44116;SDS011;29781;49.480;8.512;2022-10-16T02:56:46;9.68;;;4.60;;
44116;SDS011;29781;49.480;8.512;2022-10-16T02:59:11;8.30;;;4.53;;
44116;SDS011;29781;49.480;8.512;2022-10-16T03:01:37;5.95;;;4.13;;
44116;SDS011;29781;49.480;8.512;2022-10-16T03:04:03;8.75;;;5.38;;
44116;SDS011;29781;49.480;8.512;2022-10-16T03:06:28;8.82;;;4.78;;
44116;SDS011;29781;49.480;8.512;2022-10-16T03:08:54;6.13;;;4.68;;
44116;SDS011;29781;49.480;8.512;2022-10-16T03:11:20;6.28;;;3.70;;
44116;SDS011;29781;49.480;8.512;2022-10-16T03:13:45;5.97;;;3.67;;
44116;SDS011;29781;49.480;8.512;2022-10-16T03:16:11;7.60;;;3.40;;
44116;SDS011;29781;49.480;8.512;2022-10-16T03:18:36;5.00;;;3.03;;
44116;SDS011;29781;49.480;8.512;2022-10-16T03:21:02;7.25;;;3.60;;
44116;SDS011;29781;49.480;8.512;2022-10-16T03:23:28;4.50;;;3.33;;
44116;SDS011;29781;49.480;8.512;2022-10-16T03:25:53;7.20;;;3.60;;
44116;SDS011;29781;49.480;8.512;2022-10-16T03:28:19;5.22;;;3.33;;
44116;SDS011;29781;49.480;8.512;2022-10-16T03:30:45;12.63;;;3.30;;
44116;SDS011;29781;49.480;8.512;2022-10-16T03:33:11;9.77;;;3.47;;
44116;SDS011;29781;49.480;8.512;2022-10-16T03:35:36;4.38;;;2.75;;
44116;SDS011;29781;49.480;8.512;2022-10-16T03:38:02;6.70;;;2.33;;
44116;SDS011;29781;49.480;8.512;2022-10-16T03:40:28;5.05;;;2.30;;
44116;SDS011;29781;49.480;8.512;2022-10-16T03:42:54;3.85;;;2.13;;
44116;SDS011;29781;49.480;8.512;2022-10-16T03:45:22;4.93;;;2.20;;
44116;SDS011;29781;49.480;8.512;2022-10-16T03:47:48;9.30;;;2.65;;
44116;SDS011;29781;49.480;8.512;2022-10-16T03:50:14;4.00;;;2.20;;
44116;SDS011;29781;49.480;8.512;2022-10-16T03:52:39;4.93;;;2.28;;
44116;SDS011;29781;49.480;8.512;2022-10-16T03:55:05;2.88;;;2.28;;
44116;SDS011;29781;49.480;8.512;2022-10-16T03:57:31;5.82;;;2.38;;
44116;SDS011;29781;49.480;8.512;2022-10-16T03:59:57;2.85;;;2.20;;
44116;SDS011;29781;49.480;8.512;2022-10-16T04:02:23;4.97;;;2.47;;
44116;SDS011;29781;49.480;8.512;2022-10-16T04:04:48;3.00;;;2.35;;
44116;SDS011;29781;49.480;8.512;2022-10-16T04:07:14;4.43;;;2.00;;
44116;SDS011;29781;49.480;8.512;2022-10-16T04:09:39;2.50;;;1.98;;
44116;SDS011;29781;49.480;8.512;2022-10-16T04:12:05;2.20;;;2.00;;
44116;SDS011;29781;49.480;8.512;2022-10-16T04:14:31;3.72;;;1.92;;
44116;SDS011;29781;49.480;8.512;2022-10-16T04:16:56;2.30;;;2.03;;
44116;SDS011;29781;49.480;8.512;2022-10-16T04:19:22;2.40;;;2.10;;
44116;SDS011;29781;49.480;8.512;2022-10-16T04:21:48;3.13;;;2.28;;
44116;SDS011;29781;49.480;8.512;2022-10-16T04:24:13;2.88;;;1.90;;
44116;SDS011;29781;49.480;8.512;2022-10-16T04:26:39;2.50;;;2.03;;
44116;SDS011;29781;49.480;8.512;2022-10-16T04:29:04;2.15;;;1.80;;
44116;SDS011;29781;49.480;8.512;2022-10-16T04:31:31;4.13;;;1.85;;
44116;SDS011;29781;49.480;8.512;2022-10-16T04:33:56;4.90;;;2.20;;
44116;SDS011;29781;49.480;8.512;2022-10-16T04:36:22;2.20;;;1.85;;
44116;SDS011;29781;49.480;8.512;2022-10-16T04:38:47;5.22;;;2.17;;
44116;SDS011;29781;49.480;8.512;2022-10-16T04:41:13;3.67;;;2.20;;
44116;SDS011;29781;49.480;8.512;2022-10-16T04:43:39;2.78;;;2.10;;
44116;SDS011;29781;49.480;8.512;2022-10-16T04:46:04;2.10;;;1.90;;
44116;SDS011;29781;49.480;8.512;2022-10-16T04:48:30;4.00;;;2.25;;
44116;SDS011;29781;49.480;8.512;2022-10-16T04:50:56;3.20;;;2.13;;
44116;SDS011;29781;49.480;8.512;2022-10-16T04:53:22;3.28;;;1.75;;
44116;SDS011;29781;49.480;8.512;2022-10-16T04:55:48;3.53;;;2.17;;
44116;SDS011;29781;49.480;8.512;2022-10-16T04:58:14;4.10;;;2.33;;
44116;SDS011;29781;49.480;8.512;2022-10-16T05:00:40;3.58;;;2.13;;
44116;SDS011;29781;49.480;8.512;2022-10-16T05:03:05;4.40;;;2.15;;
44116;SDS011;29781;49.480;8.512;2022-10-16T05:05:33;3.72;;;2.10;;
44116;SDS011;29781;49.480;8.512;2022-10-16T05:08:00;7.78;;;2.53;;
44116;SDS011;29781;49.480;8.512;2022-10-16T05:10:25;3.50;;;2.40;;
44116;SDS011;29781;49.480;8.512;2022-10-16T05:12:51;4.78;;;2.50;;
44116;SDS011;29781;49.480;8.512;2022-10-16T05:15:17;5.25;;;2.67;;
44116;SDS011;29781;49.480;8.512;2022-10-16T05:17:43;4.53;;;3.13;;
44116;SDS011;29781;49.480;8.512;2022-10-16T05:20:09;4.70;;;3.25;;
44116;SDS011;29781;49.480;8.512;2022-10-16T05:22:35;7.68;;;3.17;;
44116;SDS011;29781;49.480;8.512;2022-10-16T05:25:01;6.05;;;3.83;;
44116;SDS011;29781;49.480;8.512;2022-10-16T05:27:26;4.97;;;4.15;;
44116;SDS011;29781;49.480;8.512;2022-10-16T05:29:52;9.18;;;3.78;;
44116;SDS011;29781;49.480;8.512;2022-10-16T05:32:18;5.57;;;4.15;;
44116;SDS011;29781;49.480;8.512;2022-10-16T05:34:44;10.10;;;4.38;;
44116;SDS011;29781;49.480;8.512;2022-10-16T05:37:10;8.07;;;5.65;;
44116;SDS011;29781;49.480;8.512;2022-10-16T05:39:37;9.73;;;7.05;;
44116;SDS011;29781;49.480;8.512;2022-10-16T05:42:04;8.35;;;6.05;;
44116;SDS011;29781;49.480;8.512;2022-10-16T05:44:30;5.90;;;5.07;;
44116;SDS011;29781;49.480;8.512;2022-10-16T05:46:56;5.90;;;3.17;;
44116;SDS011;29781;49.480;8.512;2022-10-16T05:49:22;12.50;;;3.08;;
44116;SDS011;29781;49.480;8.512;2022-10-16T05:51:47;4.80;;;2.72;;
44116;SDS011;29781;49.480;8.512;2022-10-16T05:54:13;7.85;;;3.22;;
44116;SDS011;29781;49.480;8.512;2022-10-16T05:56:39;3.30;;;3.00;;
44116;SDS011;29781;49.480;8.512;2022-10-16T05:59:04;6.40;;;2.85;;
44116;SDS011;29781;49.480;8.512;2022-10-16T06:01:30;4.60;;;2.90;;
44116;SDS011;29781;49.480;8.512;2022-10-16T06:03:57;3.22;;;2.33;;
44116;SDS011;29781;49.480;8.512;2022-10-16T06:06:24;3.47;;;2.40;;
44116;SDS011;29781;49.480;8.512;2022-10-16T06:08:51;3.58;;;2.15;;
44116;SDS011;29781;49.480;8.512;2022-10-16T06:11:21;2.38;;;2.17;;
44116;SDS011;29781;49.480;8.512;2022-10-16T06:13:52;6.60;;;2.50;;
44116;SDS011;29781;49.480;8.512;2022-10-16T06:16:19;6.40;;;2.50;;
44116;SDS011;29781;49.480;8.512;2022-10-16T06:18:45;7.43;;;2.97;;
44116;SDS011;29781;49.480;8.512;2022-10-16T06:21:16;4.53;;;3.10;;
44116;SDS011;29781;49.480;8.512;2022-10-16T06:23:43;4.30;;;3.40;;
44116;SDS011;29781;49.480;8.512;2022-10-16T06:26:11;7.47;;;3.60;;
44116;SDS011;29781;49.480;8.512;2022-10-16T06:28:38;6.72;;;3.38;;
44116;SDS011;29781;49.480;8.512;2022-10-16T06:31:05;4.47;;;3.20;;
44116;SDS011;29781;49.480;8.512;2022-10-16T06:33:32;5.95;;;3.00;;
44116;SDS011;29781;49.480;8.512;2022-10-16T06:36:03;4.18;;;2.92;;
44116;SDS011;29781;49.480;8.512;2022-10-16T06:38:34;9.23;;;3.00;;
44116;SDS011;29781;49.480;8.512;2022-10-16T06:41:00;6.40;;;3.22;;
44116;SDS011;29781;49.480;8.512;2022-10-16T06:43:26;3.15;;;2.30;;
44116;SDS011;29781;49.480;8.512;2022-10-16T06:45:57;3.47;;;2.10;;
44116;SDS011;29781;49.480;8.512;2022-10-16T06:48:23;2.10;;;1.90;;
44116;SDS011;29781;49.480;8.512;2022-10-16T06:50:56;5.90;;;2.60;;
44116;SDS011;29781;49.480;8.512;2022-10-16T06:53:28;7.05;;;3.22;;
44116;SDS011;29781;49.480;8.512;2022-10-16T06:55:55;3.30;;;1.98;;
44116;SDS011;29781;49.480;8.512;2022-10-16T06:58:21;4.80;;;2.25;;
44116;SDS011;29781;49.480;8.512;2022-10-16T07:00:47;3.70;;;2.17;;
44116;SDS011;29781;49.480;8.512;2022-10-16T07:03:13;8.55;;;2.42;;
44116;SDS011;29781;49.480;8.512;2022-10-16T07:05:40;5.45;;;2.95;;
44116;SDS011;29781;49.480;8.512;2022-10-16T07:08:07;3.42;;;2.55;;
44116;SDS011;29781;49.480;8.512;2022-10-16T07:10:33;3.30;;;2.60;;
44116;SDS011;29781;49.480;8.512;2022-10-16T07:12:59;5.18;;;3.15;;
44116;SDS011;29781;49.480;8.512;2022-10-16T07:15:25;3.28;;;2.75;;
44116;SDS011;29781;49.480;8.512;2022-10-16T07:17:51;5.35;;;3.28;;
44116;SDS011;29781;49.480;8.512;2022-10-16T07:20:17;5.22;;;3.50;;
44116;SDS011;29781;49.480;8.512;2022-10-16T07:22:43;5.88;;;3.70;;
44116;SDS011;29781;49.480;8.512;2022-10-16T07:25:08;4.38;;;3.35;;
44116;SDS011;29781;49.480;8.512;2022-10-16T07:27:34;3.47;;;3.17;;
44116;SDS011;29781;49.480;8.512;2022-10-16T07:30:00;4.35;;;3.38;;
44116;SDS011;29781;49.480;8.512;2022-10-16T07:32:26;6.60;;;3.35;;
44116;SDS011;29781;49.480;8.512;2022-10-16T07:34:52;5.30;;;3.35;;
44116;SDS011;29781;49.480;8.512;2022-10-16T07:37:18;8.57;;;3.33;;
44116;SDS011;29781;49.480;8.512;2022-10-16T07:39:44;4.38;;;2.60;;
44116;SDS011;29781;49.480;8.512;2022-10-16T07:42:09;2.53;;;2.33;;
44116;SDS011;29781;49.480;8.512;2022-10-16T07:44:35;3.00;;;2.53;;
44116;SDS011;29781;49.480;8.512;2022-10-16T07:47:01;4.90;;;2.95;;
44116;SDS011;29781;49.480;8.512;2022-10-16T07:49:26;6.10;;;2.75;;
44116;SDS011;29781;49.480;8.512;2022-10-16T07:51:52;4.28;;;2.30;;
44116;SDS011;29781;49.480;8.512;2022-10-16T07:54:18;5.88;;;2.63;;
44116;SDS011;29781;49.480;8.512;2022-10-16T07:56:43;6.03;;;2.35;;
44116;SDS011;29781;49.480;8.512;2022-10-16T07:59:09;2.97;;;2.20;;
44116;SDS011;29781;49.480;8.512;2022-10-16T08:01:35;3.60;;;2.42;;
44116;SDS011;29781;49.480;8.512;2022-10-16T08:04:01;2.97;;;1.77;;
44116;SDS011;29781;49.480;8.512;2022-10-16T08:06:26;3.60;;;2.00;;
44116;SDS011;29781;49.480;8.512;2022-10-16T08:08:52;7.22;;;2.25;;
44116;SDS011;29781;49.480;8.512;2022-10-16T08:11:18;6.65;;;2.30;;
44116;SDS011;29781;49.480;8.512;2022-10-16T08:13:43;4.70;;;3.47;;
44116;SDS011;29781;49.480;8.512;2022-10-16T08:16:09;6.45;;;5.78;;
44116;SDS011;29781;49.480;8.512;2022-10-16T08:18:37;7.00;;;5.63;;
44116;SDS011;29781;49.480;8.512;2022-10-16T08:21:04;12.07;;;5.40;;
44116;SDS011;29781;49.480;8.512;2022-10-16T08:23:30;10.15;;;4.82;;
44116;SDS011;29781;49.480;8.512;2022-10-16T08:26:02;4.85;;;3.28;;
44116;SDS011;29781;49.480;8.512;2022-10-16T08:28:30;4.53;;;3.35;;
44116;SDS011;29781;49.480;8.512;2022-10-16T08:30:56;6.13;;;2.58;;
44116;SDS011;29781;49.480;8.512;2022-10-16T08:33:29;5.82;;;2.97;;
44116;SDS011;29781;49.480;8.512;2022-10-16T08:35:54;7.13;;;2.38;;
44116;SDS011;29781;49.480;8.512;2022-10-16T08:38:20;6.20;;;2.10;;
44116;SDS011;29781;49.480;8.512;2022-10-16T08:40:46;7.38;;;2.40;;
44116;SDS011;29781;49.480;8.512;2022-10-16T08:48:47;5.20;;;2.25;;
44116;SDS011;29781;49.480;8.512;2022-10-16T08:51:18;5.68;;;2.17;;
44116;SDS011;29781;49.480;8.512;2022-10-16T08:53:58;18.20;;;4.35;;
44116;SDS011;29781;49.480;8.512;2022-10-16T08:56:28;14.98;;;4.80;;
44116;SDS011;29781;49.480;8.512;2022-10-16T08:58:53;12.05;;;5.43;;
44116;SDS011;29781;49.480;8.512;2022-10-16T09:01:20;17.20;;;5.30;;
44116;SDS011;29781;49.480;8.512;2022-10-16T09:04:22;12.95;;;4.63;;
44116;SDS011;29781;49.480;8.512;2022-10-16T09:07:02;7.10;;;3.72;;
44116;SDS011;29781;49.480;8.512;2022-10-16T09:12:24;7.07;;;3.30;;
44116;SDS011;29781;49.480;8.512;2022-10-16T09:17:41;3.92;;;3.17;;
44116;SDS011;29781;49.480;8.512;2022-10-16T09:25:37;4.78;;;3.22;;
44116;SDS011;29781;49.480;8.512;2022-10-16T09:28:07;5.93;;;3.42;;
44116;SDS011;29781;49.480;8.512;2022-10-16T09:30:34;4.38;;;3.22;;
44116;SDS011;29781;49.480;8.512;2022-10-16T09:33:04;5.07;;;3.70;;
44116;SDS011;29781;49.480;8.512;2022-10-16T09:35:35;5.25;;;3.40;;
44116;SDS011;29781;49.480;8.512;2022-10-16T09:38:03;9.18;;;4.20;;
44116;SDS011;29781;49.480;8.512;2022-10-16T09:43:03;7.32;;;3.92;;
44116;SDS011;29781;49.480;8.512;2022-10-16T09:45:35;7.13;;;4.75;;
44116;SDS011;29781;49.480;8.512;2022-10-16T09:48:09;9.23;;;4.75;;
44116;SDS011;29781;49.480;8.512;2022-10-16T09:50:37;4.72;;;3.97;;
44116;SDS011;29781;49.480;8.512;2022-10-16T09:53:21;4.85;;;3.80;;
44116;SDS011;29781;49.480;8.512;2022-10-16T09:55:51;5.72;;;3.85;;
44116;SDS011;29781;49.480;8.512;2022-10-16T09:58:18;9.82;;;3.95;;
44116;SDS011;29781;49.480;8.512;2022-10-16T10:00:48;7.13;;;3.70;;
44116;SDS011;29781;49.480;8.512;2022-10-16T10:03:32;5.95;;;3.38;;
44116;SDS011;29781;49.480;8.512;2022-10-16T10:08:55;6.72;;;3.65;;
44116;SDS011;29781;49.480;8.512;2022-10-16T10:14:18;5.80;;;4.20;;
44116;SDS011;29781;49.480;8.512;2022-10-16T10:19:38;5.45;;;4.20;;
44116;SDS011;29781;49.480;8.512;2022-10-16T10:24:56;5.53;;;3.80;;
44116;SDS011;29781;49.480;8.512;2022-10-16T10:33:48;5.32;;;4.72;;
44116;SDS011;29781;49.480;8.512;2022-10-16T10:36:38;5.95;;;5.35;;
44116;SDS011;29781;49.480;8.512;2022-10-16T10:45:16;7.22;;;4.43;;
44116;SDS011;29781;49.480;8.512;2022-10-16T11:06:29;3.75;;;2.78;;
44116;SDS011;29781;49.480;8.512;2022-10-16T11:09:12;6.10;;;2.72;;
44116;SDS011;29781;49.480;8.512;2022-10-16T11:11:55;3.47;;;2.88;;
44116;SDS011;29781;49.480;8.512;2022-10-16T11:14:28;6.28;;;3.17;;
44116;SDS011;29781;49.480;8.512;2022-10-16T11:19:39;11.05;;;2.88;;
44116;SDS011;29781;49.480;8.512;2022-10-16T11:27:45;3.53;;;3.13;;
44116;SDS011;29781;49.480;8.512;2022-10-16T11:32:52;2.95;;;2.70;;
44116;SDS011;29781;49.480;8.512;2022-10-16T11:35:32;3.55;;;2.45;;
44116;SDS011;29781;49.480;8.512;2022-10-16T11:38:14;3.33;;;2.70;;
44116;SDS011;29781;49.480;8.512;2022-10-16T11:40:51;4.18;;;2.53;;
44116;SDS011;29781;49.480;8.512;2022-10-16T11:43:27;3.05;;;2.70;;
44116;SDS011;29781;49.480;8.512;2022-10-16T11:46:02;4.63;;;2.50;;
44116;SDS011;29781;49.480;8.512;2022-10-16T11:48:54;3.50;;;2.47;;
44116;SDS011;29781;49.480;8.512;2022-10-16T11:51:25;8.27;;;2.55;;
44116;SDS011;29781;49.480;8.512;2022-10-16T11:56:47;6.55;;;2.78;;
44116;SDS011;29781;49.480;8.512;2022-10-16T12:05:01;6.82;;;2.40;;
44116;SDS011;29781;49.480;8.512;2022-10-16T12:07:32;6.75;;;2.60;;
44116;SDS011;29781;49.480;8.512;2022-10-16T12:10:23;3.80;;;2.63;;
44116;SDS011;29781;49.480;8.512;2022-10-16T12:12:51;6.25;;;2.78;;
44116;SDS011;29781;49.480;8.512;2022-10-16T12:17:53;3.83;;;2.60;;
44116;SDS011;29781;49.480;8.512;2022-10-16T12:20:27;4.57;;;2.78;;
44116;SDS011;29781;49.480;8.512;2022-10-16T12:23:00;3.72;;;2.67;;
44116;SDS011;29781;49.480;8.512;2022-10-16T12:27:59;2.08;;;1.88;;
44116;SDS011;29781;49.480;8.512;2022-10-16T12:30:26;4.35;;;2.42;;
44116;SDS011;29781;49.480;8.512;2022-10-16T12:32:55;3.33;;;2.25;;
44116;SDS011;29781;49.480;8.512;2022-10-16T12:35:27;4.05;;;2.72;;
44116;SDS011;29781;49.480;8.512;2022-10-16T12:38:06;3.42;;;2.42;;
44116;SDS011;29781;49.480;8.512;2022-10-16T12:40:37;3.95;;;2.70;;
44116;SDS011;29781;49.480;8.512;2022-10-16T12:45:48;3.00;;;2.80;;
44116;SDS011;29781;49.480;8.512;2022-10-16T12:48:25;4.75;;;2.60;;
44116;SDS011;29781;49.480;8.512;2022-10-16T12:50:51;4.03;;;3.00;;
44116;SDS011;29781;49.480;8.512;2022-10-16T12:53:18;5.22;;;3.08;;
44116;SDS011;29781;49.480;8.512;2022-10-16T13:06:39;3.10;;;2.80;;
44116;SDS011;29781;49.480;8.512;2022-10-16T13:15:00;2.85;;;2.60;;
44116;SDS011;29781;49.480;8.512;2022-10-16T13:28:59;5.43;;;2.80;;
44116;SDS011;29781;49.480;8.512;2022-10-16T13:31:26;4.78;;;2.40;;
44116;SDS011;29781;49.480;8.512;2022-10-16T13:33:53;5.50;;;2.60;;
44116;SDS011;29781;49.480;8.512;2022-10-16T13:39:15;7.32;;;2.83;;
44116;SDS011;29781;49.480;8.512;2022-10-16T13:41:46;6.05;;;2.90;;
44116;SDS011;29781;49.480;8.512;2022-10-16T13:44:28;5.90;;;2.65;;
44116;SDS011;29781;49.480;8.512;2022-10-16T13:47:02;4.40;;;3.00;;
44116;SDS011;29781;49.480;8.512;2022-10-16T13:49:28;5.78;;;2.97;;
44116;SDS011;29781;49.480;8.512;2022-10-16T13:51:58;5.28;;;3.30;;
44116;SDS011;29781;49.480;8.512;2022-10-16T13:54:25;9.07;;;2.90;;
44116;SDS011;29781;49.480;8.512;2022-10-16T13:56:53;3.35;;;2.80;;
44116;SDS011;29781;49.480;8.512;2022-10-16T13:59:26;4.72;;;2.80;;
44116;SDS011;29781;49.480;8.512;2022-10-16T14:01:58;5.65;;;3.10;;
44116;SDS011;29781;49.480;8.512;2022-10-16T14:04:24;4.32;;;2.88;;
44116;SDS011;29781;49.480;8.512;2022-10-16T14:06:53;5.20;;;3.30;;
44116;SDS011;29781;49.480;8.512;2022-10-16T14:09:30;5.05;;;3.40;;
44116;SDS011;29781;49.480;8.512;2022-10-16T14:11:58;3.38;;;3.08;;
44116;SDS011;29781;49.480;8.512;2022-10-16T14:14:44;3.80;;;2.90;;
44116;SDS011;29781;49.480;8.512;2022-10-16T14:17:19;3.15;;;2.80;;
44116;SDS011;29781;49.480;8.512;2022-10-16T14:19:51;6.25;;;2.90;;
44116;SDS011;29781;49.480;8.512;2022-10-16T14:22:38;4.05;;;2.80;;
44116;SDS011;29781;49.480;8.512;2022-10-16T14:30:24;4.05;;;2.42;;
44116;SDS011;29781;49.480;8.512;2022-10-16T14:32:56;3.30;;;2.65;;
44116;SDS011;29781;49.480;8.512;2022-10-16T14:35:34;2.80;;;2.38;;
44116;SDS011;29781;49.480;8.512;2022-10-16T14:38:02;4.93;;;2.47;;
44116;SDS011;29781;49.480;8.512;2022-10-16T14:40:33;4.38;;;2.25;;
44116;SDS011;29781;49.480;8.512;2022-10-16T14:43:01;3.85;;;2.50;;
44116;SDS011;29781;49.480;8.512;2022-10-16T14:45:29;4.05;;;2.33;;
44116;SDS011;29781;49.480;8.512;2022-10-16T14:47:59;2.88;;;1.65;;
44116;SDS011;29781;49.480;8.512;2022-10-16T14:50:27;2.80;;;2.45;;
44116;SDS011;29781;49.480;8.512;2022-10-16T14:52:53;2.75;;;2.30;;
44116;SDS011;29781;49.480;8.512;2022-10-16T14:55:19;6.13;;;2.70;;
44116;SDS011;29781;49.480;8.512;2022-10-16T14:57:45;4.25;;;2.50;;
44116;SDS011;29781;49.480;8.512;2022-10-16T15:00:13;2.78;;;2.35;;
44116;SDS011;29781;49.480;8.512;2022-10-16T15:02:45;3.42;;;2.30;;
44116;SDS011;29781;49.480;8.512;2022-10-16T15:07:40;4.60;;;2.67;;
44116;SDS011;29781;49.480;8.512;2022-10-16T15:10:06;2.92;;;2.50;;
44116;SDS011;29781;49.480;8.512;2022-10-16T15:12:32;4.10;;;2.47;;
44116;SDS011;29781;49.480;8.512;2022-10-16T15:14:58;4.93;;;2.72;;
44116;SDS011;29781;49.480;8.512;2022-10-16T15:17:24;5.70;;;2.50;;
44116;SDS011;29781;49.480;8.512;2022-10-16T15:19:49;3.00;;;2.70;;
44116;SDS011;29781;49.480;8.512;2022-10-16T15:22:16;3.15;;;2.80;;
44116;SDS011;29781;49.480;8.512;2022-10-16T15:24:42;4.40;;;2.83;;
44116;SDS011;29781;49.480;8.512;2022-10-16T15:27:08;8.02;;;3.22;;
44116;SDS011;29781;49.480;8.512;2022-10-16T15:29:33;4.78;;;3.00;;
44116;SDS011;29781;49.480;8.512;2022-10-16T15:31:59;3.40;;;2.38;;
44116;SDS011;29781;49.480;8.512;2022-10-16T15:34:25;6.03;;;2.72;;
44116;SDS011;29781;49.480;8.512;2022-10-16T15:36:50;4.00;;;2.50;;
44116;SDS011;29781;49.480;8.512;2022-10-16T15:39:17;9.55;;;3.15;;
44116;SDS011;29781;49.480;8.512;2022-10-16T15:41:44;5.28;;;2.40;;
44116;SDS011;29781;49.480;8.512;2022-10-16T15:44:15;7.00;;;2.40;;
44116;SDS011;29781;49.480;8.512;2022-10-16T15:46:45;3.25;;;2.67;;
44116;SDS011;29781;49.480;8.512;2022-10-16T15:49:11;4.65;;;2.40;;
44116;SDS011;29781;49.480;8.512;2022-10-16T15:51:37;11.57;;;3.00;;
44116;SDS011;29781;49.480;8.512;2022-10-16T15:54:04;2.72;;;2.53;;
44116;SDS011;29781;49.480;8.512;2022-10-16T15:56:30;8.43;;;3.25;;
44116;SDS011;29781;49.480;8.512;2022-10-16T15:58:58;5.45;;;2.33;;
44116;SDS011;29781;49.480;8.512;2022-10-16T16:01:25;3.58;;;2.05;;
44116;SDS011;29781;49.480;8.512;2022-10-16T16:03:54;6.32;;;2.50;;
44116;SDS011;29781;49.480;8.512;2022-10-16T16:06:20;8.25;;;3.03;;
44116;SDS011;29781;49.480;8.512;2022-10-16T16:08:48;5.20;;;2.80;;
44116;SDS011;29781;49.480;8.512;2022-10-16T16:11:15;3.53;;;2.50;;
44116;SDS011;29781;49.480;8.512;2022-10-16T16:13:41;5.88;;;2.17;;
44116;SDS011;29781;49.480;8.512;2022-10-16T16:16:08;2.85;;;2.55;;
44116;SDS011;29781;49.480;8.512;2022-10-16T16:18:38;5.93;;;2.33;;
44116;SDS011;29781;49.480;8.512;2022-10-16T16:21:04;3.90;;;2.67;;
44116;SDS011;29781;49.480;8.512;2022-10-16T16:23:30;3.90;;;2.50;;
44116;SDS011;29781;49.480;8.512;2022-10-16T16:28:32;3.75;;;2.60;;
44116;SDS011;29781;49.480;8.512;2022-10-16T16:30:58;4.40;;;2.60;;
44116;SDS011;29781;49.480;8.512;2022-10-16T16:33:24;3.97;;;2.40;;
44116;SDS011;29781;49.480;8.512;2022-10-16T16:35:49;6.00;;;2.90;;
44116;SDS011;29781;49.480;8.512;2022-10-16T16:38:15;3.58;;;2.75;;
44116;SDS011;29781;49.480;8.512;2022-10-16T16:40:41;5.75;;;2.65;;
44116;SDS011;29781;49.480;8.512;2022-10-16T16:43:06;4.38;;;2.40;;
44116;SDS011;29781;49.480;8.512;2022-10-16T16:45:35;2.88;;;2.20;;
44116;SDS011;29781;49.480;8.512;2022-10-16T16:48:00;3.40;;;2.42;;
44116;SDS011;29781;49.480;8.512;2022-10-16T16:50:26;4.28;;;2.58;;
44116;SDS011;29781;49.480;8.512;2022-10-16T16:52:52;6.20;;;2.83;;
44116;SDS011;29781;49.480;8.512;2022-10-16T16:55:17;3.55;;;2.70;;
44116;SDS011;29781;49.480;8.512;2022-10-16T16:57:43;4.70;;;2.60;;
44116;SDS011;29781;49.480;8.512;2022-10-16T17:00:08;3.92;;;2.42;;
44116;SDS011;29781;49.480;8.512;2022-10-16T17:02:34;3.45;;;2.83;;
44116;SDS011;29781;49.480;8.512;2022-10-16T17:05:00;5.28;;;2.72;;
44116;SDS011;29781;49.480;8.512;2022-10-16T17:07:26;2.60;;;2.30;;
44116;SDS011;29781;49.480;8.512;2022-10-16T17:09:55;5.13;;;2.65;;
44116;SDS011;29781;49.480;8.512;2022-10-16T17:12:21;3.47;;;2.70;;
44116;SDS011;29781;49.480;8.512;2022-10-16T17:14:46;3.05;;;2.47;;
44116;SDS011;29781;49.480;8.512;2022-10-16T17:17:12;3.95;;;2.72;;